sensor_id;sensor_type;location;lat;lon;timestamp;temperature;humidity
19805;DHT22;10062;51.052;13.756;2023-04-24T00:01:08;13.10;1.00
19805;DHT22;10062;51.052;13.756;2023-04-24T00:03:40;13.00;1.00
19805;DHT22;10062;51.052;13.756;2023-04-24T00:06:13;12.90;1.00
19805;DHT22;10062;51.052;13.756;2023-04-24T00:08:47;13.00;1.00
19805;DHT22;10062;51.052;13.756;2023-04-24T00:11:18;13.00;1.00
19805;DHT22;10062;51.052;13.756;2023-04-24T00:13:50;13.10;1.00
19805;DHT22;10062;51.052;13.756;2023-04-24T00:16:22;13.00;1.00
19805;DHT22;10062;51.052;13.756;2023-04-24T00:18:54;13.00;1.00
19805;DHT22;10062;51.052;13.756;2023-04-24T00:21:27;13.10;1.00
19805;DHT22;10062;51.052;13.756;2023-04-24T00:23:59;13.10;1.00
19805;DHT22;10062;51.052;13.756;2023-04-24T00:26:30;13.10;1.00
19805;DHT22;10062;51.052;13.756;2023-04-24T00:29:02;12.90;1.00
19805;DHT22;10062;51.052;13.756;2023-04-24T00:31:33;12.90;1.00
19805;DHT22;10062;51.052;13.756;2023-04-24T00:34:05;13.00;1.00
19805;DHT22;10062;51.052;13.756;2023-04-24T00:36:39;13.00;1.00
19805;DHT22;10062;51.052;13.756;2023-04-24T00:39:11;13.00;1.00
19805;DHT22;10062;51.052;13.756;2023-04-24T00:41:43;13.00;1.00
19805;DHT22;10062;51.052;13.756;2023-04-24T00:44:15;13.00;1.00
19805;DHT22;10062;51.052;13.756;2023-04-24T00:46:47;13.00;1.00
19805;DHT22;10062;51.052;13.756;2023-04-24T00:49:22;12.90;1.00
19805;DHT22;10062;51.052;13.756;2023-04-24T00:51:56;12.90;1.00
19805;DHT22;10062;51.052;13.756;2023-04-24T00:54:29;12.90;1.00
19805;DHT22;10062;51.052;13.756;2023-04-24T00:57:01;12.90;1.00
19805;DHT22;10062;51.052;13.756;2023-04-24T00:59:33;12.90;1.00
19805;DHT22;10062;51.052;13.756;2023-04-24T01:02:06;12.80;1.00
19805;DHT22;10062;51.052;13.756;2023-04-24T01:04:39;12.90;1.00
19805;DHT22;10062;51.052;13.756;2023-04-24T01:07:12;12.90;1.00
19805;DHT22;10062;51.052;13.756;2023-04-24T01:09:44;12.80;1.00
19805;DHT22;10062;51.052;13.756;2023-04-24T01:12:17;12.80;1.00
19805;DHT22;10062;51.052;13.756;2023-04-24T01:14:49;12.90;1.00
19805;DHT22;10062;51.052;13.756;2023-04-24T01:17:21;12.90;1.00
19805;DHT22;10062;51.052;13.756;2023-04-24T01:19:52;12.80;1.00
19805;DHT22;10062;51.052;13.756;2023-04-24T01:22:29;12.90;1.00
19805;DHT22;10062;51.052;13.756;2023-04-24T01:25:01;13.00;1.00
19805;DHT22;10062;51.052;13.756;2023-04-24T01:27:34;12.90;1.00
19805;DHT22;10062;51.052;13.756;2023-04-24T01:30:07;12.90;1.00
19805;DHT22;10062;51.052;13.756;2023-04-24T01:32:39;12.90;1.00
19805;DHT22;10062;51.052;13.756;2023-04-24T01:35:11;12.90;1.00
19805;DHT22;10062;51.052;13.756;2023-04-24T01:37:44;13.00;1.00
19805;DHT22;10062;51.052;13.756;2023-04-24T01:40:16;12.90;1.00
19805;DHT22;10062;51.052;13.756;2023-04-24T01:42:48;13.00;1.00
19805;DHT22;10062;51.052;13.756;2023-04-24T01:45:19;13.00;1.00
19805;DHT22;10062;51.052;13.756;2023-04-24T01:47:51;13.00;1.00
19805;DHT22;10062;51.052;13.756;2023-04-24T01:50:23;13.00;1.00
19805;DHT22;10062;51.052;13.756;2023-04-24T01:52:56;13.10;1.00
19805;DHT22;10062;51.052;13.756;2023-04-24T01:55:28;12.90;1.00
19805;DHT22;10062;51.052;13.756;2023-04-24T01:58:00;12.90;1.00
19805;DHT22;10062;51.052;13.756;2023-04-24T02:00:33;12.90;1.00
19805;DHT22;10062;51.052;13.756;2023-04-24T02:03:04;13.00;1.00
19805;DHT22;10062;51.052;13.756;2023-04-24T02:05:36;12.90;1.00
19805;DHT22;10062;51.052;13.756;2023-04-24T02:08:09;12.90;1.00
19805;DHT22;10062;51.052;13.756;2023-04-24T02:10:42;12.90;1.00
19805;DHT22;10062;51.052;13.756;2023-04-24T02:13:13;12.90;1.00
19805;DHT22;10062;51.052;13.756;2023-04-24T02:15:45;12.90;1.00
19805;DHT22;10062;51.052;13.756;2023-04-24T02:18:16;12.80;1.00
19805;DHT22;10062;51.052;13.756;2023-04-24T02:20:48;12.90;1.00
19805;DHT22;10062;51.052;13.756;2023-04-24T02:23:21;12.80;1.00
19805;DHT22;10062;51.052;13.756;2023-04-24T02:25:53;12.80;1.00
19805;DHT22;10062;51.052;13.756;2023-04-24T02:28:25;12.70;1.00
19805;DHT22;10062;51.052;13.756;2023-04-24T02:30:56;12.60;1.00
19805;DHT22;10062;51.052;13.756;2023-04-24T02:33:29;12.60;1.00
19805;DHT22;10062;51.052;13.756;2023-04-24T02:36:00;12.60;1.00
19805;DHT22;10062;51.052;13.756;2023-04-24T02:38:34;12.60;1.00
19805;DHT22;10062;51.052;13.756;2023-04-24T02:41:06;12.80;1.00
19805;DHT22;10062;51.052;13.756;2023-04-24T02:43:37;12.80;1.00
19805;DHT22;10062;51.052;13.756;2023-04-24T02:46:09;12.70;1.00
19805;DHT22;10062;51.052;13.756;2023-04-24T02:48:41;12.80;1.00
19805;DHT22;10062;51.052;13.756;2023-04-24T02:51:12;12.80;1.00
19805;DHT22;10062;51.052;13.756;2023-04-24T02:53:45;12.80;1.00
19805;DHT22;10062;51.052;13.756;2023-04-24T02:56:17;12.70;1.00
19805;DHT22;10062;51.052;13.756;2023-04-24T02:58:49;12.70;1.00
19805;DHT22;10062;51.052;13.756;2023-04-24T03:01:20;12.70;1.00
19805;DHT22;10062;51.052;13.756;2023-04-24T03:03:52;12.70;1.00
19805;DHT22;10062;51.052;13.756;2023-04-24T03:06:23;12.70;1.00
19805;DHT22;10062;51.052;13.756;2023-04-24T03:08:58;12.80;1.00
19805;DHT22;10062;51.052;13.756;2023-04-24T03:11:30;12.60;1.00
19805;DHT22;10062;51.052;13.756;2023-04-24T03:14:01;12.60;1.00
19805;DHT22;10062;51.052;13.756;2023-04-24T03:16:33;12.50;1.00
19805;DHT22;10062;51.052;13.756;2023-04-24T03:19:05;12.50;1.00
19805;DHT22;10062;51.052;13.756;2023-04-24T03:21:40;12.50;1.00
19805;DHT22;10062;51.052;13.756;2023-04-24T03:24:13;12.50;1.00
19805;DHT22;10062;51.052;13.756;2023-04-24T03:26:45;12.50;1.00
19805;DHT22;10062;51.052;13.756;2023-04-24T03:29:50;12.50;1.00
19805;DHT22;10062;51.052;13.756;2023-04-24T03:32:26;12.50;1.00
19805;DHT22;10062;51.052;13.756;2023-04-24T03:37:30;12.40;1.00
19805;DHT22;10062;51.052;13.756;2023-04-24T03:40:26;12.50;1.00
19805;DHT22;10062;51.052;13.756;2023-04-24T03:43:00;12.60;1.00
19805;DHT22;10062;51.052;13.756;2023-04-24T03:45:33;12.50;1.00
19805;DHT22;10062;51.052;13.756;2023-04-24T03:48:05;12.60;1.00
19805;DHT22;10062;51.052;13.756;2023-04-24T03:50:38;12.60;1.00
19805;DHT22;10062;51.052;13.756;2023-04-24T03:53:13;12.60;1.00
19805;DHT22;10062;51.052;13.756;2023-04-24T03:55:47;12.50;1.00
19805;DHT22;10062;51.052;13.756;2023-04-24T03:58:19;12.50;1.00
19805;DHT22;10062;51.052;13.756;2023-04-24T04:00:51;12.50;1.00
19805;DHT22;10062;51.052;13.756;2023-04-24T04:03:43;12.50;1.00
19805;DHT22;10062;51.052;13.756;2023-04-24T04:06:18;12.50;1.00
19805;DHT22;10062;51.052;13.756;2023-04-24T04:08:53;12.60;1.00
19805;DHT22;10062;51.052;13.756;2023-04-24T04:11:26;12.60;1.00
19805;DHT22;10062;51.052;13.756;2023-04-24T04:13:58;12.50;1.00
19805;DHT22;10062;51.052;13.756;2023-04-24T04:16:30;12.60;1.00
19805;DHT22;10062;51.052;13.756;2023-04-24T04:19:06;12.70;1.00
19805;DHT22;10062;51.052;13.756;2023-04-24T04:21:39;12.70;1.00
19805;DHT22;10062;51.052;13.756;2023-04-24T04:24:17;12.70;1.00
19805;DHT22;10062;51.052;13.756;2023-04-24T04:26:52;12.70;1.00
19805;DHT22;10062;51.052;13.756;2023-04-24T04:29:33;12.70;1.00
19805;DHT22;10062;51.052;13.756;2023-04-24T04:32:06;12.90;1.00
19805;DHT22;10062;51.052;13.756;2023-04-24T04:34:38;12.90;1.00
19805;DHT22;10062;51.052;13.756;2023-04-24T04:37:12;12.90;1.00
19805;DHT22;10062;51.052;13.756;2023-04-24T04:39:55;12.90;1.00
19805;DHT22;10062;51.052;13.756;2023-04-24T04:42:32;12.90;1.00
19805;DHT22;10062;51.052;13.756;2023-04-24T04:45:06;12.90;1.00
19805;DHT22;10062;51.052;13.756;2023-04-24T04:47:51;13.00;1.00
19805;DHT22;10062;51.052;13.756;2023-04-24T04:50:22;13.00;1.00
19805;DHT22;10062;51.052;13.756;2023-04-24T04:52:58;13.20;1.00
19805;DHT22;10062;51.052;13.756;2023-04-24T04:55:36;13.20;1.00
19805;DHT22;10062;51.052;13.756;2023-04-24T04:58:19;13.20;1.00
19805;DHT22;10062;51.052;13.756;2023-04-24T05:00:55;13.10;1.00
19805;DHT22;10062;51.052;13.756;2023-04-24T05:03:38;13.20;1.00
19805;DHT22;10062;51.052;13.756;2023-04-24T05:06:14;13.30;99.90
19805;DHT22;10062;51.052;13.756;2023-04-24T05:08:47;13.40;99.90
19805;DHT22;10062;51.052;13.756;2023-04-24T05:11:30;13.50;1.00
19805;DHT22;10062;51.052;13.756;2023-04-24T05:14:06;13.60;1.00
19805;DHT22;10062;51.052;13.756;2023-04-24T05:16:41;13.70;1.00
19805;DHT22;10062;51.052;13.756;2023-04-24T05:19:14;13.80;99.90
19805;DHT22;10062;51.052;13.756;2023-04-24T05:21:46;13.80;1.00
19805;DHT22;10062;51.052;13.756;2023-04-24T05:24:17;13.90;1.00
19805;DHT22;10062;51.052;13.756;2023-04-24T05:26:59;13.90;99.90
19805;DHT22;10062;51.052;13.756;2023-04-24T05:29:39;14.10;99.90
19805;DHT22;10062;51.052;13.756;2023-04-24T05:32:12;14.10;1.00
19805;DHT22;10062;51.052;13.756;2023-04-24T05:34:44;14.00;1.00
19805;DHT22;10062;51.052;13.756;2023-04-24T05:37:16;14.10;1.00
19805;DHT22;10062;51.052;13.756;2023-04-24T05:39:47;14.10;1.00
19805;DHT22;10062;51.052;13.756;2023-04-24T05:42:19;14.20;1.00
19805;DHT22;10062;51.052;13.756;2023-04-24T05:44:52;14.20;1.00
19805;DHT22;10062;51.052;13.756;2023-04-24T05:47:25;14.30;99.90
19805;DHT22;10062;51.052;13.756;2023-04-24T05:49:58;14.40;1.00
19805;DHT22;10062;51.052;13.756;2023-04-24T05:52:30;14.40;1.00
19805;DHT22;10062;51.052;13.756;2023-04-24T05:55:02;14.40;1.00
19805;DHT22;10062;51.052;13.756;2023-04-24T05:57:37;14.50;1.00
19805;DHT22;10062;51.052;13.756;2023-04-24T06:00:11;14.50;99.90
19805;DHT22;10062;51.052;13.756;2023-04-24T06:02:44;14.50;6.00
19805;DHT22;10062;51.052;13.756;2023-04-24T06:05:17;14.60;1.00
19805;DHT22;10062;51.052;13.756;2023-04-24T06:07:50;14.70;1.00
19805;DHT22;10062;51.052;13.756;2023-04-24T06:10:25;14.80;1.00
19805;DHT22;10062;51.052;13.756;2023-04-24T06:12:57;14.80;1.00
19805;DHT22;10062;51.052;13.756;2023-04-24T06:15:32;14.90;1.00
19805;DHT22;10062;51.052;13.756;2023-04-24T06:18:16;15.00;99.90
19805;DHT22;10062;51.052;13.756;2023-04-24T06:20:48;15.20;99.90
19805;DHT22;10062;51.052;13.756;2023-04-24T06:23:20;14.00;1.00
19805;DHT22;10062;51.052;13.756;2023-04-24T06:25:52;15.60;99.90
19805;DHT22;10062;51.052;13.756;2023-04-24T06:30:57;15.90;1.00
19805;DHT22;10062;51.052;13.756;2023-04-24T06:36:03;16.10;1.00
19805;DHT22;10062;51.052;13.756;2023-04-24T06:38:34;16.20;1.00
19805;DHT22;10062;51.052;13.756;2023-04-24T06:41:06;16.30;99.90
19805;DHT22;10062;51.052;13.756;2023-04-24T06:43:38;16.40;1.00
19805;DHT22;10062;51.052;13.756;2023-04-24T06:46:11;16.60;1.00
19805;DHT22;10062;51.052;13.756;2023-04-24T06:48:43;16.70;1.00
19805;DHT22;10062;51.052;13.756;2023-04-24T06:51:15;16.90;1.00
19805;DHT22;10062;51.052;13.756;2023-04-24T06:53:48;17.10;1.00
19805;DHT22;10062;51.052;13.756;2023-04-24T06:56:20;17.10;1.00
19805;DHT22;10062;51.052;13.756;2023-04-24T06:58:52;17.20;1.00
19805;DHT22;10062;51.052;13.756;2023-04-24T07:01:26;17.50;1.00
19805;DHT22;10062;51.052;13.756;2023-04-24T07:03:57;17.60;99.90
19805;DHT22;10062;51.052;13.756;2023-04-24T07:06:29;17.90;99.90
19805;DHT22;10062;51.052;13.756;2023-04-24T07:09:02;18.10;75.30
19805;DHT22;10062;51.052;13.756;2023-04-24T07:11:33;18.40;1.00
19805;DHT22;10062;51.052;13.756;2023-04-24T07:14:07;18.70;1.00
19805;DHT22;10062;51.052;13.756;2023-04-24T07:16:40;19.10;1.00
19805;DHT22;10062;51.052;13.756;2023-04-24T07:19:12;19.60;1.00
19805;DHT22;10062;51.052;13.756;2023-04-24T07:21:44;19.90;1.00
19805;DHT22;10062;51.052;13.756;2023-04-24T07:24:15;20.10;1.00
19805;DHT22;10062;51.052;13.756;2023-04-24T07:26:47;20.30;1.00
19805;DHT22;10062;51.052;13.756;2023-04-24T07:29:19;20.30;99.90
19805;DHT22;10062;51.052;13.756;2023-04-24T07:31:52;20.00;1.00
19805;DHT22;10062;51.052;13.756;2023-04-24T07:34:25;19.80;1.00
19805;DHT22;10062;51.052;13.756;2023-04-24T07:36:56;19.50;1.00
19805;DHT22;10062;51.052;13.756;2023-04-24T07:39:28;19.30;1.00
19805;DHT22;10062;51.052;13.756;2023-04-24T07:42:00;19.10;1.00
19805;DHT22;10062;51.052;13.756;2023-04-24T07:44:32;18.90;1.00
19805;DHT22;10062;51.052;13.756;2023-04-24T07:47:05;18.90;1.00
19805;DHT22;10062;51.052;13.756;2023-04-24T07:49:37;19.00;1.00
19805;DHT22;10062;51.052;13.756;2023-04-24T07:52:09;18.90;1.00
19805;DHT22;10062;51.052;13.756;2023-04-24T07:54:40;18.90;1.00
19805;DHT22;10062;51.052;13.756;2023-04-24T07:57:13;18.90;1.00
19805;DHT22;10062;51.052;13.756;2023-04-24T07:59:44;18.90;1.00
19805;DHT22;10062;51.052;13.756;2023-04-24T08:02:17;18.90;1.00
19805;DHT22;10062;51.052;13.756;2023-04-24T08:04:49;18.90;1.00
19805;DHT22;10062;51.052;13.756;2023-04-24T08:07:21;18.80;1.00
19805;DHT22;10062;51.052;13.756;2023-04-24T08:09:53;18.90;1.00
19805;DHT22;10062;51.052;13.756;2023-04-24T08:12:25;19.20;1.00
19805;DHT22;10062;51.052;13.756;2023-04-24T08:14:56;19.50;1.00
19805;DHT22;10062;51.052;13.756;2023-04-24T08:17:29;19.50;1.00
19805;DHT22;10062;51.052;13.756;2023-04-24T08:20:01;19.40;1.00
19805;DHT22;10062;51.052;13.756;2023-04-24T08:22:34;19.20;1.00
19805;DHT22;10062;51.052;13.756;2023-04-24T08:25:06;19.20;1.00
19805;DHT22;10062;51.052;13.756;2023-04-24T08:27:38;19.20;1.00
19805;DHT22;10062;51.052;13.756;2023-04-24T08:30:10;19.20;1.00
19805;DHT22;10062;51.052;13.756;2023-04-24T08:32:43;19.20;1.00
19805;DHT22;10062;51.052;13.756;2023-04-24T08:35:15;19.30;1.00
19805;DHT22;10062;51.052;13.756;2023-04-24T08:40:23;19.60;99.90
19805;DHT22;10062;51.052;13.756;2023-04-24T08:42:59;19.40;1.00
19805;DHT22;10062;51.052;13.756;2023-04-24T08:45:32;19.40;99.90
19805;DHT22;10062;51.052;13.756;2023-04-24T08:48:06;19.50;99.90
19805;DHT22;10062;51.052;13.756;2023-04-24T08:50:38;19.10;99.90
19805;DHT22;10062;51.052;13.756;2023-04-24T08:53:13;18.80;99.90
19805;DHT22;10062;51.052;13.756;2023-04-24T08:55:47;18.50;99.90
19805;DHT22;10062;51.052;13.756;2023-04-24T09:00:51;18.30;1.00
19805;DHT22;10062;51.052;13.756;2023-04-24T09:03:25;18.20;1.00
19805;DHT22;10062;51.052;13.756;2023-04-24T09:05:58;18.50;1.00
19805;DHT22;10062;51.052;13.756;2023-04-24T09:08:31;19.20;99.90
19805;DHT22;10062;51.052;13.756;2023-04-24T09:11:04;19.80;99.90
19805;DHT22;10062;51.052;13.756;2023-04-24T09:13:35;20.10;99.90
19805;DHT22;10062;51.052;13.756;2023-04-24T09:16:08;19.90;99.90
19805;DHT22;10062;51.052;13.756;2023-04-24T09:18:41;20.20;99.90
19805;DHT22;10062;51.052;13.756;2023-04-24T09:21:12;20.30;99.90
19805;DHT22;10062;51.052;13.756;2023-04-24T09:23:44;21.10;99.90
19805;DHT22;10062;51.052;13.756;2023-04-24T09:26:16;21.90;61.50
19805;DHT22;10062;51.052;13.756;2023-04-24T09:28:47;22.80;19.10
19805;DHT22;10062;51.052;13.756;2023-04-24T09:31:19;23.00;1.00
19805;DHT22;10062;51.052;13.756;2023-04-24T09:33:58;22.50;1.00
19805;DHT22;10062;51.052;13.756;2023-04-24T09:36:32;22.20;1.00
19805;DHT22;10062;51.052;13.756;2023-04-24T09:39:05;21.60;1.00
19805;DHT22;10062;51.052;13.756;2023-04-24T09:41:44;21.30;1.00
19805;DHT22;10062;51.052;13.756;2023-04-24T09:44:18;21.10;1.00
19805;DHT22;10062;51.052;13.756;2023-04-24T09:46:53;20.90;1.00
19805;DHT22;10062;51.052;13.756;2023-04-24T09:49:27;20.70;1.00
19805;DHT22;10062;51.052;13.756;2023-04-24T09:52:03;20.60;1.00
19805;DHT22;10062;51.052;13.756;2023-04-24T09:54:35;20.50;1.00
19805;DHT22;10062;51.052;13.756;2023-04-24T09:57:08;20.40;2.50
19805;DHT22;10062;51.052;13.756;2023-04-24T09:59:42;20.50;4.40
19805;DHT22;10062;51.052;13.756;2023-04-24T10:02:17;20.60;17.50
19805;DHT22;10062;51.052;13.756;2023-04-24T10:04:56;21.30;1.00
19805;DHT22;10062;51.052;13.756;2023-04-24T10:07:32;20.50;1.00
19805;DHT22;10062;51.052;13.756;2023-04-24T10:10:05;20.40;1.00
19805;DHT22;10062;51.052;13.756;2023-04-24T10:12:37;20.10;1.00
19805;DHT22;10062;51.052;13.756;2023-04-24T10:15:10;20.00;1.00
19805;DHT22;10062;51.052;13.756;2023-04-24T10:17:45;20.00;1.00
19805;DHT22;10062;51.052;13.756;2023-04-24T10:20:25;19.90;3.50
19805;DHT22;10062;51.052;13.756;2023-04-24T10:22:57;20.00;6.40
19805;DHT22;10062;51.052;13.756;2023-04-24T10:25:31;19.90;14.00
19805;DHT22;10062;51.052;13.756;2023-04-24T10:28:04;19.70;1.00
19805;DHT22;10062;51.052;13.756;2023-04-24T10:30:35;19.80;6.30
19805;DHT22;10062;51.052;13.756;2023-04-24T10:35:44;20.30;1.00
19805;DHT22;10062;51.052;13.756;2023-04-24T10:38:22;21.40;3.60
19805;DHT22;10062;51.052;13.756;2023-04-24T10:40:57;22.70;1.00
19805;DHT22;10062;51.052;13.756;2023-04-24T10:43:39;24.10;1.00
19805;DHT22;10062;51.052;13.756;2023-04-24T10:46:16;25.50;1.00
19805;DHT22;10062;51.052;13.756;2023-04-24T10:48:52;25.60;1.00
19805;DHT22;10062;51.052;13.756;2023-04-24T10:51:46;24.70;1.00
19805;DHT22;10062;51.052;13.756;2023-04-24T10:54:26;23.60;1.00
19805;DHT22;10062;51.052;13.756;2023-04-24T10:57:25;22.90;1.00
19805;DHT22;10062;51.052;13.756;2023-04-24T11:00:18;21.90;1.00
19805;DHT22;10062;51.052;13.756;2023-04-24T11:02:52;21.30;1.00
19805;DHT22;10062;51.052;13.756;2023-04-24T11:05:50;21.10;1.00
19805;DHT22;10062;51.052;13.756;2023-04-24T11:08:25;20.70;1.00
19805;DHT22;10062;51.052;13.756;2023-04-24T11:11:03;20.30;1.00
19805;DHT22;10062;51.052;13.756;2023-04-24T11:14:03;20.00;1.00
19805;DHT22;10062;51.052;13.756;2023-04-24T11:16:43;19.70;1.00
19805;DHT22;10062;51.052;13.756;2023-04-24T11:19:24;19.50;1.00
19805;DHT22;10062;51.052;13.756;2023-04-24T11:21:58;19.20;1.00
19805;DHT22;10062;51.052;13.756;2023-04-24T11:24:38;18.80;1.00
19805;DHT22;10062;51.052;13.756;2023-04-24T11:27:18;18.70;26.70
19805;DHT22;10062;51.052;13.756;2023-04-24T11:30:00;18.50;87.80
19805;DHT22;10062;51.052;13.756;2023-04-24T11:32:35;18.60;99.90
19805;DHT22;10062;51.052;13.756;2023-04-24T11:35:15;18.80;99.90
19805;DHT22;10062;51.052;13.756;2023-04-24T11:37:48;18.90;99.90
19805;DHT22;10062;51.052;13.756;2023-04-24T11:40:23;18.90;99.90
19805;DHT22;10062;51.052;13.756;2023-04-24T11:45:30;19.00;99.90
19805;DHT22;10062;51.052;13.756;2023-04-24T11:48:03;19.40;99.90
19805;DHT22;10062;51.052;13.756;2023-04-24T11:50:35;20.00;99.90
19805;DHT22;10062;51.052;13.756;2023-04-24T11:53:06;20.70;81.60
19805;DHT22;10062;51.052;13.756;2023-04-24T11:55:39;21.10;26.40
19805;DHT22;10062;51.052;13.756;2023-04-24T11:58:11;21.30;5.70
19805;DHT22;10062;51.052;13.756;2023-04-24T12:00:43;21.30;1.00
19805;DHT22;10062;51.052;13.756;2023-04-24T12:03:16;21.00;1.00
19805;DHT22;10062;51.052;13.756;2023-04-24T12:05:47;21.20;1.00
19805;DHT22;10062;51.052;13.756;2023-04-24T12:08:27;21.70;1.00
19805;DHT22;10062;51.052;13.756;2023-04-24T12:11:01;21.90;1.00
19805;DHT22;10062;51.052;13.756;2023-04-24T12:13:33;21.80;1.00
19805;DHT22;10062;51.052;13.756;2023-04-24T12:16:05;21.30;1.00
19805;DHT22;10062;51.052;13.756;2023-04-24T12:18:41;21.00;1.00
19805;DHT22;10062;51.052;13.756;2023-04-24T12:21:21;20.80;1.00
19805;DHT22;10062;51.052;13.756;2023-04-24T12:23:54;20.60;1.00
19805;DHT22;10062;51.052;13.756;2023-04-24T12:26:27;20.40;1.00
19805;DHT22;10062;51.052;13.756;2023-04-24T12:29:01;19.90;1.00
19805;DHT22;10062;51.052;13.756;2023-04-24T12:31:34;19.60;1.00
19805;DHT22;10062;51.052;13.756;2023-04-24T12:34:17;19.30;1.00
19805;DHT22;10062;51.052;13.756;2023-04-24T12:36:49;19.20;1.00
19805;DHT22;10062;51.052;13.756;2023-04-24T12:39:21;19.60;1.00
19805;DHT22;10062;51.052;13.756;2023-04-24T12:41:57;20.20;1.00
19805;DHT22;10062;51.052;13.756;2023-04-24T12:44:29;20.60;1.00
19805;DHT22;10062;51.052;13.756;2023-04-24T12:47:02;20.90;1.00
19805;DHT22;10062;51.052;13.756;2023-04-24T12:49:33;21.00;1.00
19805;DHT22;10062;51.052;13.756;2023-04-24T12:52:05;21.00;1.00
19805;DHT22;10062;51.052;13.756;2023-04-24T12:54:37;21.00;1.00
19805;DHT22;10062;51.052;13.756;2023-04-24T12:57:10;21.00;1.00
19805;DHT22;10062;51.052;13.756;2023-04-24T12:59:41;21.10;1.00
19805;DHT22;10062;51.052;13.756;2023-04-24T13:02:14;21.20;1.00
19805;DHT22;10062;51.052;13.756;2023-04-24T13:04:48;21.20;1.00
19805;DHT22;10062;51.052;13.756;2023-04-24T13:07:20;21.20;1.00
19805;DHT22;10062;51.052;13.756;2023-04-24T13:09:52;21.20;1.00
19805;DHT22;10062;51.052;13.756;2023-04-24T13:12:25;21.20;1.00
19805;DHT22;10062;51.052;13.756;2023-04-24T13:14:57;21.30;1.00
19805;DHT22;10062;51.052;13.756;2023-04-24T13:17:30;21.40;1.00
19805;DHT22;10062;51.052;13.756;2023-04-24T13:20:01;21.50;1.00
19805;DHT22;10062;51.052;13.756;2023-04-24T13:22:33;21.70;1.00
19805;DHT22;10062;51.052;13.756;2023-04-24T13:25:06;22.20;1.00
19805;DHT22;10062;51.052;13.756;2023-04-24T13:27:39;22.40;1.00
19805;DHT22;10062;51.052;13.756;2023-04-24T13:30:11;22.70;1.00
19805;DHT22;10062;51.052;13.756;2023-04-24T13:32:43;22.90;1.00
19805;DHT22;10062;51.052;13.756;2023-04-24T13:35:15;22.80;1.00
19805;DHT22;10062;51.052;13.756;2023-04-24T13:37:47;22.80;1.00
19805;DHT22;10062;51.052;13.756;2023-04-24T13:40:18;22.80;1.00
19805;DHT22;10062;51.052;13.756;2023-04-24T13:42:51;23.00;1.00
19805;DHT22;10062;51.052;13.756;2023-04-24T13:45:23;23.30;1.00
19805;DHT22;10062;51.052;13.756;2023-04-24T13:47:55;23.30;1.00
19805;DHT22;10062;51.052;13.756;2023-04-24T13:50:27;23.20;1.00
19805;DHT22;10062;51.052;13.756;2023-04-24T13:52:58;23.00;1.00
19805;DHT22;10062;51.052;13.756;2023-04-24T13:55:31;22.50;1.00
19805;DHT22;10062;51.052;13.756;2023-04-24T13:58:04;22.00;1.00
19805;DHT22;10062;51.052;13.756;2023-04-24T14:00:36;21.50;1.00
19805;DHT22;10062;51.052;13.756;2023-04-24T14:03:08;21.30;1.00
19805;DHT22;10062;51.052;13.756;2023-04-24T14:05:41;21.20;1.00
19805;DHT22;10062;51.052;13.756;2023-04-24T14:08:12;21.30;1.00
19805;DHT22;10062;51.052;13.756;2023-04-24T14:10:44;21.60;1.00
19805;DHT22;10062;51.052;13.756;2023-04-24T14:13:17;21.90;1.00
19805;DHT22;10062;51.052;13.756;2023-04-24T14:15:49;21.90;1.00
19805;DHT22;10062;51.052;13.756;2023-04-24T14:18:21;21.90;1.00
19805;DHT22;10062;51.052;13.756;2023-04-24T14:20:52;22.00;1.00
19805;DHT22;10062;51.052;13.756;2023-04-24T14:23:24;22.20;1.00
19805;DHT22;10062;51.052;13.756;2023-04-24T14:25:56;22.60;1.00
19805;DHT22;10062;51.052;13.756;2023-04-24T14:28:29;22.80;1.00
19805;DHT22;10062;51.052;13.756;2023-04-24T14:31:01;23.00;1.00
19805;DHT22;10062;51.052;13.756;2023-04-24T14:33:32;22.90;1.00
19805;DHT22;10062;51.052;13.756;2023-04-24T14:36:04;22.70;1.00
19805;DHT22;10062;51.052;13.756;2023-04-24T14:38:36;22.50;1.00
19805;DHT22;10062;51.052;13.756;2023-04-24T14:41:08;22.20;1.00
19805;DHT22;10062;51.052;13.756;2023-04-24T14:43:43;21.70;1.00
19805;DHT22;10062;51.052;13.756;2023-04-24T14:46:15;21.40;1.00
19805;DHT22;10062;51.052;13.756;2023-04-24T14:48:47;21.20;1.00
19805;DHT22;10062;51.052;13.756;2023-04-24T14:51:18;21.20;1.00
19805;DHT22;10062;51.052;13.756;2023-04-24T14:53:50;21.20;1.00
19805;DHT22;10062;51.052;13.756;2023-04-24T14:56:23;21.10;1.00
19805;DHT22;10062;51.052;13.756;2023-04-24T14:58:56;21.00;1.00
19805;DHT22;10062;51.052;13.756;2023-04-24T15:01:28;20.90;1.00
19805;DHT22;10062;51.052;13.756;2023-04-24T15:03:59;20.80;1.00
19805;DHT22;10062;51.052;13.756;2023-04-24T15:06:31;20.70;1.00
19805;DHT22;10062;51.052;13.756;2023-04-24T15:09:03;20.70;1.00
19805;DHT22;10062;51.052;13.756;2023-04-24T15:11:34;20.70;1.00
19805;DHT22;10062;51.052;13.756;2023-04-24T15:14:07;20.60;1.00
19805;DHT22;10062;51.052;13.756;2023-04-24T15:16:39;20.50;1.00
19805;DHT22;10062;51.052;13.756;2023-04-24T15:19:11;20.50;1.00
19805;DHT22;10062;51.052;13.756;2023-04-24T15:21:42;20.40;1.00
19805;DHT22;10062;51.052;13.756;2023-04-24T15:24:14;20.20;1.00
19805;DHT22;10062;51.052;13.756;2023-04-24T15:26:46;20.00;1.00
19805;DHT22;10062;51.052;13.756;2023-04-24T15:29:19;19.70;1.00
19805;DHT22;10062;51.052;13.756;2023-04-24T15:31:51;19.40;1.00
19805;DHT22;10062;51.052;13.756;2023-04-24T15:34:22;19.20;1.00
19805;DHT22;10062;51.052;13.756;2023-04-24T15:36:54;19.00;1.00
19805;DHT22;10062;51.052;13.756;2023-04-24T15:39:26;18.90;1.00
19805;DHT22;10062;51.052;13.756;2023-04-24T15:41:59;18.80;1.00
19805;DHT22;10062;51.052;13.756;2023-04-24T15:44:32;18.60;1.00
19805;DHT22;10062;51.052;13.756;2023-04-24T15:47:04;18.50;1.00
19805;DHT22;10062;51.052;13.756;2023-04-24T15:49:36;18.60;1.00
19805;DHT22;10062;51.052;13.756;2023-04-24T15:52:07;18.50;1.00
19805;DHT22;10062;51.052;13.756;2023-04-24T15:54:40;18.40;1.00
19805;DHT22;10062;51.052;13.756;2023-04-24T15:57:11;18.30;1.00
19805;DHT22;10062;51.052;13.756;2023-04-24T15:59:45;18.10;1.00
19805;DHT22;10062;51.052;13.756;2023-04-24T16:02:16;18.10;1.00
19805;DHT22;10062;51.052;13.756;2023-04-24T16:04:50;18.00;1.00
19805;DHT22;10062;51.052;13.756;2023-04-24T16:07:22;17.80;1.00
19805;DHT22;10062;51.052;13.756;2023-04-24T16:09:54;18.50;1.00
19805;DHT22;10062;51.052;13.756;2023-04-24T16:12:26;17.50;1.00
19805;DHT22;10062;51.052;13.756;2023-04-24T16:14:59;17.50;1.00
19805;DHT22;10062;51.052;13.756;2023-04-24T16:17:31;17.50;1.00
19805;DHT22;10062;51.052;13.756;2023-04-24T16:20:03;17.50;1.00
19805;DHT22;10062;51.052;13.756;2023-04-24T16:22:35;17.40;1.00
19805;DHT22;10062;51.052;13.756;2023-04-24T16:25:08;17.40;1.00
19805;DHT22;10062;51.052;13.756;2023-04-24T16:27:40;17.30;1.00